createdAt,value
2024-01-11T00:00:33.693Z,100.00
2024-01-11T00:03:05.277Z,100.00
2024-01-11T00:05:32.113Z,100.00
2024-01-11T00:07:58.831Z,100.00
2024-01-11T00:10:25.676Z,100.00
2024-01-11T00:12:52.512Z,100.00
2024-01-11T00:15:19.226Z,100.00
2024-01-11T00:17:46.258Z,100.00
2024-01-11T00:20:13.190Z,100.00
2024-01-11T00:22:40.032Z,100.00
2024-01-11T00:25:06.907Z,100.00
2024-01-11T00:27:33.631Z,100.00
2024-01-11T00:30:00.341Z,100.00
2024-01-11T00:32:27.240Z,100.00
2024-01-11T00:34:54.105Z,100.00
2024-01-11T00:37:20.941Z,100.00
2024-01-11T00:39:47.645Z,100.00
2024-01-11T00:42:14.318Z,100.00
2024-01-11T00:44:41.790Z,100.00
2024-01-11T00:47:08.807Z,100.00
2024-01-11T00:49:35.807Z,100.00
2024-01-11T00:52:02.593Z,100.00
2024-01-11T00:54:29.331Z,100.00
2024-01-11T00:56:55.938Z,100.00
2024-01-11T00:59:22.695Z,100.00
2024-01-11T01:01:50.032Z,100.00
2024-01-11T01:04:16.933Z,100.00
2024-01-11T01:06:44.367Z,100.00
2024-01-11T01:09:11.146Z,100.00
2024-01-11T01:11:38.096Z,100.00
2024-01-11T01:14:04.768Z,100.00
2024-01-11T01:16:31.456Z,100.00
2024-01-11T01:18:58.365Z,100.00
2024-01-11T01:21:25.081Z,100.00
2024-01-11T01:23:51.744Z,100.00
2024-01-11T01:26:18.531Z,100.00
2024-01-11T01:28:45.193Z,100.00
2024-01-11T01:31:11.982Z,100.00
2024-01-11T01:33:38.831Z,100.00
2024-01-11T01:36:10.173Z,100.00
2024-01-11T01:38:36.886Z,100.00
2024-01-11T01:41:03.984Z,100.00
2024-01-11T01:43:30.672Z,100.00
2024-01-11T01:45:57.830Z,100.00
2024-01-11T01:48:24.755Z,100.00
2024-01-11T01:50:51.829Z,100.00
2024-01-11T01:53:23.220Z,100.00
2024-01-11T01:55:51.110Z,100.00
2024-01-11T01:58:19.419Z,100.00
2024-01-11T02:00:47.072Z,100.00
2024-01-11T02:03:15.998Z,100.00
2024-01-11T02:05:43.863Z,100.00
2024-01-11T02:08:16.664Z,100.00
2024-01-11T02:10:44.183Z,100.00
2024-01-11T02:13:11.285Z,100.00
2024-01-11T02:15:38.139Z,100.00
2024-01-11T02:18:05.142Z,100.00
2024-01-11T02:20:32.800Z,100.00
2024-01-11T02:23:06.490Z,100.00
2024-01-11T02:25:33.253Z,100.00
2024-01-11T02:27:59.988Z,100.00
2024-01-11T02:30:26.716Z,100.00
2024-01-11T02:32:54.639Z,100.00
2024-01-11T02:35:22.335Z,100.00
2024-01-11T02:37:49.857Z,100.00
2024-01-11T02:40:16.651Z,100.00
2024-01-11T02:42:43.466Z,100.00
2024-01-11T02:45:12.310Z,100.00
2024-01-11T02:47:39.142Z,100.00
2024-01-11T02:50:09.817Z,100.00
2024-01-11T02:52:36.640Z,100.00
2024-01-11T02:55:03.521Z,100.00
2024-01-11T02:57:30.343Z,100.00
2024-01-11T02:59:56.952Z,100.00
2024-01-11T03:02:23.900Z,100.00
2024-01-11T03:04:50.797Z,100.00
2024-01-11T03:07:17.535Z,100.00
2024-01-11T03:09:44.302Z,100.00
2024-01-11T03:12:10.936Z,100.00
2024-01-11T03:14:37.776Z,100.00
2024-01-11T03:17:04.767Z,100.00
2024-01-11T03:19:31.522Z,100.00
2024-01-11T03:21:58.712Z,100.00
2024-01-11T03:24:25.327Z,100.00
2024-01-11T03:26:51.997Z,100.00
2024-01-11T03:29:18.735Z,100.00
2024-01-11T03:31:46.584Z,100.00
2024-01-11T03:34:13.683Z,100.00
2024-01-11T03:36:41.386Z,100.00
2024-01-11T03:39:08.129Z,100.00
2024-01-11T03:41:35.081Z,100.00
2024-01-11T03:44:02.094Z,100.00
2024-01-11T03:46:29.035Z,100.00
2024-01-11T03:48:57.307Z,100.00
2024-01-11T03:51:24.048Z,100.00
2024-01-11T03:53:50.930Z,100.00
2024-01-11T03:56:17.822Z,100.00
2024-01-11T03:58:46.478Z,100.00
2024-01-11T04:01:13.346Z,100.00
2024-01-11T04:03:40.186Z,100.00
2024-01-11T04:06:07.852Z,100.00
2024-01-11T04:08:34.980Z,100.00
2024-01-11T04:11:07.845Z,100.00
2024-01-11T04:13:34.664Z,100.00
2024-01-11T04:16:05.965Z,100.00
2024-01-11T04:18:32.650Z,100.00
2024-01-11T04:20:59.501Z,100.00
2024-01-11T04:23:26.250Z,100.00
2024-01-11T04:25:53.105Z,100.00
2024-01-11T04:28:19.832Z,100.00
2024-01-11T04:30:46.534Z,100.00
2024-01-11T04:33:13.385Z,100.00
2024-01-11T04:35:40.123Z,100.00
2024-01-11T04:38:06.844Z,100.00
2024-01-11T04:40:33.565Z,100.00
2024-01-11T04:43:03.038Z,100.00
2024-01-11T04:45:29.686Z,100.00
2024-01-11T04:47:56.462Z,100.00
2024-01-11T04:50:23.624Z,100.00
2024-01-11T04:52:50.489Z,100.00
2024-01-11T04:55:17.092Z,100.00
2024-01-11T04:57:43.926Z,100.00
2024-01-11T05:00:11.464Z,100.00
2024-01-11T05:02:38.454Z,100.00
2024-01-11T05:05:05.620Z,100.00
2024-01-11T05:07:32.909Z,100.00
2024-01-11T05:10:00.053Z,100.00
2024-01-11T05:12:26.659Z,100.00
2024-01-11T05:14:53.313Z,100.00
2024-01-11T05:17:19.994Z,100.00
2024-01-11T05:19:46.701Z,100.00
2024-01-11T05:22:13.499Z,100.00
2024-01-11T05:24:40.159Z,100.00
2024-01-11T05:27:06.826Z,100.00
2024-01-11T05:29:33.660Z,100.00
2024-01-11T05:32:00.632Z,100.00
2024-01-11T05:34:27.481Z,100.00
2024-01-11T05:36:54.086Z,100.00
2024-01-11T05:39:20.898Z,100.00
2024-01-11T05:41:50.970Z,100.00
2024-01-11T05:44:17.846Z,100.00
2024-01-11T05:46:45.543Z,100.00
2024-01-11T05:49:12.556Z,100.00
2024-01-11T05:51:39.477Z,100.00
2024-01-11T05:54:06.736Z,100.00
2024-01-11T05:56:34.128Z,100.00
2024-01-11T05:59:01.368Z,100.00
2024-01-11T06:01:28.349Z,100.00
2024-01-11T06:03:55.110Z,100.00
2024-01-11T06:06:22.389Z,100.00
2024-01-11T06:08:49.913Z,100.00
2024-01-11T06:11:16.653Z,100.00
2024-01-11T06:13:43.303Z,100.00
2024-01-11T06:16:13.602Z,100.00
2024-01-11T06:18:40.725Z,100.00
2024-01-11T06:21:07.468Z,100.00
2024-01-11T06:23:34.279Z,100.00
2024-01-11T06:26:01.155Z,100.00
2024-01-11T06:28:27.905Z,100.00
2024-01-11T06:30:54.986Z,100.00
2024-01-11T06:33:22.089Z,100.00
2024-01-11T06:35:49.063Z,100.00
2024-01-11T06:38:15.762Z,100.00
2024-01-11T06:40:42.789Z,100.00
2024-01-11T06:43:09.418Z,100.00
2024-01-11T06:45:36.436Z,100.00
2024-01-11T06:48:03.503Z,100.00
2024-01-11T06:50:30.426Z,100.00
2024-01-11T06:52:57.264Z,100.00
2024-01-11T06:55:24.176Z,100.00
2024-01-11T06:57:51.002Z,100.00
2024-01-11T07:00:17.768Z,100.00
2024-01-11T07:02:44.507Z,100.00
2024-01-11T07:05:11.287Z,100.00
2024-01-11T07:07:38.300Z,100.00
2024-01-11T07:10:06.850Z,100.00
2024-01-11T07:12:34.473Z,100.00
2024-01-11T07:15:01.126Z,100.00
2024-01-11T07:17:28.163Z,100.00
2024-01-11T07:19:54.930Z,100.00
2024-01-11T07:22:21.539Z,100.00
2024-01-11T07:24:48.183Z,100.00
2024-01-11T07:27:15.744Z,100.00
2024-01-11T07:29:42.648Z,100.00
2024-01-11T07:32:09.659Z,100.00
2024-01-11T07:34:36.510Z,100.00
2024-01-11T07:37:03.486Z,100.00
2024-01-11T07:39:32.261Z,100.00
2024-01-11T07:41:59.024Z,100.00
2024-01-11T07:44:25.784Z,100.00
2024-01-11T07:46:54.541Z,100.00
2024-01-11T07:49:22.930Z,100.00
2024-01-11T07:51:50.427Z,100.00
2024-01-11T07:54:17.341Z,100.00
2024-01-11T07:56:44.387Z,100.00
2024-01-11T07:59:16.185Z,100.00
2024-01-11T08:01:43.405Z,100.00
2024-01-11T08:04:10.142Z,100.00
2024-01-11T08:06:36.877Z,100.00
2024-01-11T08:09:06.069Z,100.00
2024-01-11T08:11:36.571Z,100.00
2024-01-11T08:14:07.227Z,100.00
2024-01-11T08:16:37.511Z,100.00
2024-01-11T08:19:04.475Z,100.00
2024-01-11T08:21:31.370Z,100.00
2024-01-11T08:24:02.578Z,100.00
2024-01-11T08:26:31.746Z,100.00
2024-01-11T08:28:58.536Z,100.00
2024-01-11T08:31:25.726Z,100.00
2024-01-11T08:33:52.807Z,100.00
2024-01-11T08:36:19.539Z,100.00
2024-01-11T08:38:46.341Z,100.00
2024-01-11T08:41:13.161Z,100.00
2024-01-11T08:43:40.838Z,100.00
2024-01-11T08:46:07.553Z,100.00
2024-01-11T08:48:34.384Z,100.00
2024-01-11T08:51:01.439Z,100.00
2024-01-11T08:53:28.290Z,100.00
2024-01-11T08:55:54.899Z,100.00
2024-01-11T08:58:21.513Z,100.00
2024-01-11T09:00:48.257Z,100.00
2024-01-11T09:03:16.865Z,100.00
2024-01-11T09:05:43.880Z,100.00
2024-01-11T09:08:10.628Z,100.00
2024-01-11T09:10:37.326Z,100.00
2024-01-11T09:13:04.154Z,100.00
2024-01-11T09:15:31.060Z,100.00
2024-01-11T09:17:57.906Z,100.00
2024-01-11T09:20:24.752Z,100.00
2024-01-11T09:22:51.359Z,100.00
2024-01-11T09:25:18.078Z,100.00
2024-01-11T09:27:44.727Z,100.00
2024-01-11T09:30:11.935Z,100.00
2024-01-11T09:32:38.772Z,100.00
2024-01-11T09:35:06.259Z,100.00
2024-01-11T09:37:33.623Z,100.00
2024-01-11T09:40:02.095Z,100.00
2024-01-11T09:42:29.473Z,100.00
2024-01-11T09:44:57.806Z,100.00
2024-01-11T09:47:26.566Z,100.00
2024-01-11T09:49:56.875Z,100.00
2024-01-11T09:52:26.912Z,100.00
2024-01-11T09:54:53.693Z,100.00
2024-01-11T09:57:36.146Z,100.00
2024-01-11T10:00:08.749Z,100.00
2024-01-11T10:02:35.549Z,100.00
2024-01-11T10:05:02.384Z,100.00
2024-01-11T10:07:31.872Z,100.00
2024-01-11T10:09:59.458Z,100.00
2024-01-11T10:12:26.856Z,100.00
2024-01-11T10:14:54.079Z,100.00
2024-01-11T10:17:24.299Z,100.00
2024-01-11T10:19:54.626Z,100.00
2024-01-11T10:22:23.223Z,100.00
2024-01-11T10:24:51.762Z,100.00
2024-01-11T10:27:18.429Z,100.00
2024-01-11T10:29:46.575Z,100.00
2024-01-11T10:32:13.304Z,100.00
2024-01-11T10:34:42.550Z,100.00
2024-01-11T10:37:11.776Z,100.00
2024-01-11T10:39:39.719Z,100.00
2024-01-11T10:42:09.117Z,100.00
2024-01-11T10:44:42.017Z,100.00
2024-01-11T10:47:10.928Z,100.00
2024-01-11T10:49:42.374Z,100.00
2024-01-11T10:52:10.104Z,100.00
2024-01-11T10:54:38.243Z,100.00
2024-01-11T10:57:06.820Z,100.00
2024-01-11T10:59:35.350Z,100.00
2024-01-11T11:02:07.853Z,100.00
2024-01-11T11:04:36.989Z,100.00
2024-01-11T11:07:04.535Z,100.00
2024-01-11T11:09:34.073Z,100.00
2024-01-11T11:12:02.204Z,100.00
2024-01-11T11:14:29.815Z,100.00
2024-01-11T11:16:56.637Z,100.00
2024-01-11T11:19:23.764Z,100.00
2024-01-11T11:21:52.081Z,100.00
2024-01-11T11:24:18.797Z,98.36
2024-01-11T11:26:45.557Z,92.19
2024-01-11T11:29:12.358Z,85.01
2024-01-11T11:31:43.491Z,82.42
2024-01-11T11:34:13.870Z,75.62
2024-01-11T11:36:48.029Z,70.82
2024-01-11T11:39:14.944Z,68.45
2024-01-11T11:41:44.311Z,67.02
2024-01-11T11:44:15.379Z,64.78
2024-01-11T11:46:42.389Z,64.07
2024-01-11T11:49:11.413Z,63.82
2024-01-11T11:51:40.510Z,60.01
2024-01-11T11:54:11.077Z,60.84
2024-01-11T11:56:38.231Z,58.17
2024-01-11T11:59:05.139Z,56.55
2024-01-11T12:01:33.642Z,57.13
2024-01-11T12:04:00.355Z,52.57
2024-01-11T12:06:29.262Z,51.71
2024-01-11T12:08:58.164Z,50.89
2024-01-11T12:11:25.786Z,50.74
2024-01-11T12:13:54.681Z,52.00
2024-01-11T12:16:22.246Z,50.96
2024-01-11T12:18:50.592Z,51.51
2024-01-11T12:21:18.082Z,50.17
2024-01-11T12:23:45.327Z,50.44
2024-01-11T12:26:16.578Z,51.31
2024-01-11T12:28:45.433Z,49.51
2024-01-11T12:31:14.135Z,49.17
2024-01-11T12:33:42.752Z,48.24
2024-01-11T12:36:10.307Z,47.31
2024-01-11T12:38:37.168Z,47.79
2024-01-11T12:41:05.451Z,47.32
2024-01-11T12:43:32.515Z,46.98
2024-01-11T12:45:59.495Z,46.71
2024-01-11T12:48:26.624Z,47.10
2024-01-11T12:51:05.808Z,47.00
2024-01-11T12:53:41.790Z,46.97
2024-01-11T12:56:12.894Z,47.70
2024-01-11T12:58:40.042Z,47.56
2024-01-11T13:01:11.987Z,48.49
2024-01-11T13:03:48.328Z,48.58
2024-01-11T13:06:16.703Z,48.44
2024-01-11T13:08:44.170Z,50.55
2024-01-11T13:11:10.907Z,51.64
2024-01-11T13:13:37.719Z,50.58
2024-01-11T13:16:07.680Z,49.84
2024-01-11T13:18:34.565Z,52.62
2024-01-11T13:21:01.399Z,52.68
2024-01-11T13:23:28.056Z,51.97
2024-01-11T13:25:54.813Z,52.06
2024-01-11T13:28:21.431Z,54.88
2024-01-11T13:30:50.547Z,55.89
2024-01-11T13:33:19.176Z,53.79
2024-01-11T13:35:47.225Z,53.15
2024-01-11T13:38:14.273Z,52.92
2024-01-11T13:40:41.790Z,54.51
2024-01-11T13:43:09.084Z,55.66
2024-01-11T13:45:38.986Z,54.82
2024-01-11T13:48:07.108Z,55.74
2024-01-11T13:50:34.865Z,54.18
2024-01-11T13:53:03.379Z,55.64
2024-01-11T13:55:39.375Z,57.40
2024-01-11T13:58:07.118Z,60.28
2024-01-11T14:00:33.936Z,62.21
2024-01-11T14:03:00.894Z,63.47
2024-01-11T14:05:27.845Z,66.23
2024-01-11T14:08:00.806Z,68.79
2024-01-11T14:10:28.650Z,70.06
2024-01-11T14:12:55.836Z,73.16
2024-01-11T14:15:22.634Z,90.32
2024-01-11T14:17:50.087Z,98.02
2024-01-11T14:20:18.356Z,100.00
2024-01-11T14:22:52.431Z,100.00
2024-01-11T14:25:21.182Z,100.00
2024-01-11T14:27:49.417Z,100.00
2024-01-11T14:30:16.319Z,100.00
2024-01-11T14:32:43.676Z,100.00
2024-01-11T14:35:11.653Z,100.00
2024-01-11T14:37:39.898Z,100.00
2024-01-11T14:40:12.010Z,100.00
2024-01-11T14:42:38.854Z,100.00
2024-01-11T14:45:06.821Z,100.00
2024-01-11T14:47:34.006Z,100.00
2024-01-11T14:50:01.307Z,100.00
2024-01-11T14:52:27.995Z,100.00
2024-01-11T14:54:54.790Z,100.00
2024-01-11T14:57:22.486Z,100.00
2024-01-11T14:59:49.334Z,100.00
2024-01-11T15:02:16.348Z,100.00
2024-01-11T15:04:43.786Z,100.00
2024-01-11T15:07:10.602Z,100.00
2024-01-11T15:09:40.247Z,100.00
2024-01-11T15:12:08.808Z,100.00
2024-01-11T15:14:35.562Z,100.00
2024-01-11T15:17:03.830Z,100.00
2024-01-11T15:19:31.049Z,100.00
2024-01-11T15:21:57.852Z,100.00
2024-01-11T15:24:24.422Z,100.00
2024-01-11T15:26:51.275Z,100.00
2024-01-11T15:29:18.462Z,100.00
2024-01-11T15:31:47.766Z,100.00
2024-01-11T15:34:16.195Z,100.00
2024-01-11T15:36:44.354Z,100.00
2024-01-11T15:41:42.375Z,100.00
2024-01-11T15:44:09.425Z,100.00
2024-01-11T15:46:36.329Z,100.00
2024-01-11T15:49:03.064Z,100.00
2024-01-11T15:51:30.310Z,100.00
2024-01-11T15:53:57.481Z,100.00
2024-01-11T15:56:24.134Z,100.00
2024-01-11T15:58:50.856Z,100.00
2024-01-11T16:01:17.514Z,100.00
2024-01-11T16:03:45.923Z,100.00
2024-01-11T16:06:12.878Z,100.00
2024-01-11T16:08:39.762Z,100.00
2024-01-11T16:11:06.477Z,100.00
2024-01-11T16:13:33.116Z,100.00
2024-01-11T16:16:00.674Z,100.00
2024-01-11T16:18:27.669Z,100.00
2024-01-11T16:20:55.971Z,100.00
2024-01-11T16:23:22.946Z,100.00
2024-01-11T16:25:50.132Z,100.00
2024-01-11T16:28:16.860Z,100.00
2024-01-11T16:30:43.736Z,100.00
2024-01-11T16:33:11.297Z,100.00
2024-01-11T16:35:45.094Z,100.00
2024-01-11T16:38:16.453Z,100.00
2024-01-11T16:40:43.227Z,100.00
2024-01-11T16:43:12.794Z,100.00
2024-01-11T16:45:40.499Z,100.00
2024-01-11T16:48:11.534Z,100.00
2024-01-11T16:50:38.584Z,100.00
2024-01-11T16:53:05.419Z,100.00
2024-01-11T16:55:33.197Z,100.00
2024-01-11T16:58:00.958Z,100.00
2024-01-11T17:00:29.101Z,100.00
2024-01-11T17:02:59.131Z,100.00
2024-01-11T17:05:26.154Z,100.00
2024-01-11T17:07:52.984Z,100.00
2024-01-11T17:10:19.577Z,100.00
2024-01-11T17:12:46.618Z,100.00
2024-01-11T17:15:15.155Z,100.00
2024-01-11T17:17:42.973Z,100.00
2024-01-11T17:20:11.767Z,100.00
2024-01-11T17:22:38.561Z,100.00
2024-01-11T17:25:05.492Z,100.00
2024-01-11T17:27:32.278Z,100.00
2024-01-11T17:29:59.059Z,100.00
2024-01-11T17:32:25.760Z,100.00
2024-01-11T17:34:57.063Z,100.00
2024-01-11T17:37:23.959Z,100.00
2024-01-11T17:39:51.466Z,100.00
2024-01-11T17:42:18.961Z,100.00
2024-01-11T17:44:45.923Z,100.00
2024-01-11T17:47:13.677Z,100.00
2024-01-11T17:49:43.054Z,100.00
2024-01-11T17:52:10.289Z,100.00
2024-01-11T17:54:37.063Z,100.00
2024-01-11T17:57:04.073Z,100.00
2024-01-11T17:59:30.841Z,100.00
2024-01-11T18:01:58.021Z,100.00
2024-01-11T18:04:24.838Z,100.00
2024-01-11T18:06:52.067Z,100.00
2024-01-11T18:09:18.957Z,100.00
2024-01-11T18:11:46.170Z,100.00
2024-01-11T18:14:13.401Z,100.00
2024-01-11T18:16:40.181Z,100.00
2024-01-11T18:19:08.906Z,100.00
2024-01-11T18:21:35.844Z,100.00
2024-01-11T18:24:02.542Z,100.00
2024-01-11T18:26:29.255Z,100.00
2024-01-11T18:28:56.130Z,100.00
2024-01-11T18:31:23.890Z,100.00
2024-01-11T18:33:53.287Z,100.00
2024-01-11T18:36:24.591Z,100.00
2024-01-11T18:38:54.220Z,100.00
2024-01-11T18:41:22.299Z,100.00
2024-01-11T18:43:49.156Z,100.00
2024-01-11T18:46:17.405Z,100.00
2024-01-11T18:48:44.136Z,100.00
2024-01-11T18:51:11.000Z,100.00
2024-01-11T18:53:37.803Z,100.00
2024-01-11T18:56:04.832Z,100.00
2024-01-11T18:58:31.698Z,100.00
2024-01-11T19:00:58.505Z,100.00
2024-01-11T19:03:25.492Z,100.00
2024-01-11T19:05:52.715Z,100.00
2024-01-11T19:08:19.670Z,100.00
2024-01-11T19:10:46.349Z,100.00
2024-01-11T19:13:13.029Z,100.00
2024-01-11T19:15:39.797Z,100.00
2024-01-11T19:18:10.265Z,100.00
2024-01-11T19:20:37.316Z,100.00
2024-01-11T19:23:04.559Z,100.00
2024-01-11T19:25:33.366Z,100.00
2024-01-11T19:28:02.330Z,100.00
2024-01-11T19:30:29.834Z,100.00
2024-01-11T19:32:56.574Z,100.00
2024-01-11T19:35:23.360Z,100.00
2024-01-11T19:37:50.521Z,100.00
2024-01-11T19:40:17.293Z,100.00
2024-01-11T19:42:43.960Z,100.00
2024-01-11T19:45:11.180Z,100.00
2024-01-11T19:47:38.609Z,100.00
2024-01-11T19:50:06.615Z,100.00
2024-01-11T19:52:33.397Z,100.00
2024-01-11T19:55:00.074Z,100.00
2024-01-11T19:57:26.980Z,100.00
2024-01-11T19:59:53.823Z,100.00
2024-01-11T20:02:20.564Z,100.00
2024-01-11T20:04:47.249Z,100.00
2024-01-11T20:07:13.991Z,100.00
2024-01-11T20:09:41.964Z,100.00
2024-01-11T20:12:09.896Z,100.00
2024-01-11T20:14:37.415Z,100.00
2024-01-11T20:17:04.600Z,100.00
2024-01-11T20:19:32.110Z,100.00
2024-01-11T20:21:58.949Z,100.00
2024-01-11T20:24:25.676Z,100.00
2024-01-11T20:26:52.571Z,100.00
2024-01-11T20:29:19.666Z,100.00
2024-01-11T20:31:46.894Z,100.00
2024-01-11T20:34:16.212Z,100.00
2024-01-11T20:36:43.416Z,100.00
2024-01-11T20:39:10.172Z,100.00
2024-01-11T20:41:44.096Z,100.00
2024-01-11T20:44:11.728Z,100.00
2024-01-11T20:46:38.561Z,100.00
2024-01-11T20:49:05.286Z,100.00
2024-01-11T20:51:32.066Z,100.00
2024-01-11T20:53:59.304Z,100.00
2024-01-11T20:56:27.562Z,100.00
2024-01-11T20:58:54.332Z,100.00
2024-01-11T21:01:21.096Z,100.00
2024-01-11T21:03:47.903Z,100.00
2024-01-11T21:06:14.961Z,100.00
2024-01-11T21:08:41.804Z,100.00
2024-01-11T21:11:09.204Z,100.00
2024-01-11T21:13:35.998Z,100.00
2024-01-11T21:16:03.832Z,100.00
2024-01-11T21:18:31.089Z,100.00
2024-01-11T21:21:00.428Z,100.00
2024-01-11T21:23:27.160Z,100.00
2024-01-11T21:25:53.925Z,100.00
2024-01-11T21:28:20.620Z,100.00
2024-01-11T21:30:47.317Z,100.00
2024-01-11T21:33:16.672Z,100.00
2024-01-11T21:35:44.151Z,100.00
2024-01-11T21:38:10.952Z,100.00
2024-01-11T21:40:40.786Z,100.00
2024-01-11T21:43:08.765Z,100.00
2024-01-11T21:45:35.454Z,100.00
2024-01-11T21:48:02.181Z,100.00
2024-01-11T21:50:31.957Z,100.00
2024-01-11T21:52:59.186Z,100.00
2024-01-11T21:55:26.122Z,100.00
2024-01-11T21:57:53.090Z,100.00
2024-01-11T22:00:20.133Z,100.00
2024-01-11T22:02:47.041Z,100.00
2024-01-11T22:05:13.826Z,100.00
2024-01-11T22:07:40.492Z,100.00
2024-01-11T22:10:08.093Z,100.00
2024-01-11T22:12:34.833Z,100.00
2024-01-11T22:15:03.268Z,100.00
2024-01-11T22:17:31.327Z,100.00
2024-01-11T22:19:58.157Z,100.00
2024-01-11T22:22:24.893Z,100.00
2024-01-11T22:24:51.495Z,100.00
2024-01-11T22:27:18.159Z,100.00
2024-01-11T22:29:44.858Z,100.00
2024-01-11T22:32:11.536Z,100.00
2024-01-11T22:34:38.278Z,100.00
2024-01-11T22:37:04.948Z,100.00
2024-01-11T22:39:31.555Z,100.00
2024-01-11T22:41:58.190Z,100.00
2024-01-11T22:44:24.825Z,100.00
2024-01-11T22:46:51.525Z,100.00
2024-01-11T22:49:18.111Z,100.00
2024-01-11T22:51:44.696Z,100.00
2024-01-11T22:54:11.417Z,100.00
2024-01-11T22:56:38.737Z,100.00
2024-01-11T22:59:06.362Z,100.00
2024-01-11T23:01:33.618Z,100.00
2024-01-11T23:04:00.301Z,100.00
2024-01-11T23:06:27.275Z,100.00
2024-01-11T23:08:54.049Z,100.00
2024-01-11T23:11:20.884Z,100.00
2024-01-11T23:13:47.625Z,100.00
2024-01-11T23:16:14.763Z,100.00
2024-01-11T23:18:44.339Z,100.00
2024-01-11T23:21:12.105Z,100.00
2024-01-11T23:23:38.838Z,100.00
2024-01-11T23:26:06.518Z,100.00
2024-01-11T23:28:33.148Z,100.00
2024-01-11T23:31:00.037Z,100.00
2024-01-11T23:33:26.923Z,100.00
2024-01-11T23:35:54.881Z,100.00
2024-01-11T23:38:21.659Z,100.00
2024-01-11T23:40:48.402Z,100.00
2024-01-11T23:43:15.198Z,100.00
2024-01-11T23:45:42.492Z,100.00
2024-01-11T23:48:09.309Z,100.00
2024-01-11T23:50:36.177Z,100.00
2024-01-11T23:53:02.921Z,100.00
2024-01-11T23:55:29.620Z,100.00
2024-01-11T23:57:56.327Z,100.00
